Meny       Hjem   X °F

Select another period ( hide this area )

Units Period Custom range Directly to
Metric English Both
Daily Weekly Monthly Yearly
use both date-selectors for a custom range
previous Day
With this date
Daily Summary for Wednesday 12 June 2024
Time Temp. ( °F ) Dew pt. ( °F ) Wind ( mph ) From Gust ( mph ) Pressure ( in ) Humid.( % ) Rainrate ( in )
High57.9 50.4 6.8 North ( 354/756 ) 11.2 30.05 98 11.82
Average52.0 48.4 2.4 Calm #75/200 3.4 30.03 88 13.40
Low47.3 46.6 -   0.0 30.00 69 -
Daily Tabular details for Wednesday 12 June 2024
Time Temp. ( °F ) Dew pt. ( °F ) Wind ( mph ) From Gust ( mph ) Pressure ( in ) Humid.( % ) Rainrate ( in )
00:04 49.8 49.1   Calm   30.01 97 -
00:09 49.8 49.1   Calm   30.00 97 -
00:14 49.6 48.9   Calm   30.01 97 -
00:19 49.6 48.9   Calm   30.01 97 -
00:24 49.6 48.9   Calm   30.01 97 -
00:29 49.6 48.9   Calm   30.01 97 -
00:34 49.6 48.9   Calm 1.2 30.01 97 -
00:39 49.8 49.1 1.2 NNE 2.5 30.01 97 4.69
00:44 49.8 49.1   Calm   30.01 97 11.82
00:49 49.6 48.9 1.2 North 2.5 30.01 97 11.82
00:54 49.6 48.9   Calm   30.01 97 7.09
00:59 49.6 48.9   Calm   30.01 97 -
01:04 49.5 48.7   Calm   30.01 97 -
01:09 49.5 48.9   Calm   30.01 98 -
01:14 49.5 48.9 0.6 North 2.5 30.01 98 4.69
01:19 49.5 48.9 0.6 NNE 1.2 30.01 98 4.69
01:24 49.6 49.1   Calm   30.01 98 4.69
01:29 49.6 49.1   Calm   30.01 98 -
01:34 49.6 49.1   Calm   30.01 98 -
01:39 49.5 48.9   Calm   30.01 98 -
01:44 49.3 48.7   Calm   30.01 98 -
01:49 49.3 48.7   Calm   30.01 98 -
01:54 49.3 48.7   Calm   30.01 98 -
01:59 49.1 48.6   Calm   30.01 98 -
02:04 49.1 48.6   Calm   30.01 98 -
02:09 48.9 48.4   Calm   30.01 98 -
02:14 49.1 48.6   Calm   30.02 98 -
02:19 49.1 48.6   Calm   30.01 98 -
02:24 49.1 48.6   Calm   30.01 98 -
02:29 48.9 48.4 1.2 North 2.5 30.01 98 -
02:34 48.9 48.4   Calm   30.01 98 -
02:39 48.9 48.4   Calm   30.01 98 -
02:44 48.9 48.4   Calm   30.01 98 -
02:49 48.7 48.2   Calm   30.01 98 -
02:54 48.6 48.0 2.5 North 3.7 30.01 98 -
02:59 48.6 48.0 1.9 NNE 2.5 30.01 98 -
03:04 48.7 48.0 3.1 North 4.3 30.01 97 -
03:09 48.7 48.0 0.6 North 1.2 30.01 97 -
03:14 48.7 48.0   Calm   30.01 97 -
03:19 48.7 48.0   Calm   30.01 97 -
03:24 48.7 47.8   Calm   30.01 96 -
03:29 48.9 48.0   Calm   30.01 96 -
03:34 48.7 47.8   Calm   30.01 96 -
03:39 48.6 47.7   Calm   30.01 97 -
03:44 48.4 47.7   Calm   30.01 97 -
03:49 48.2 47.5   Calm   30.01 97 -
03:54 48.0 47.3   Calm   30.02 97 -
03:59 48.2 47.5   Calm   30.02 98 -
04:04 48.2 47.7   Calm   30.02 98 -
04:09 48.2 47.7   Calm   30.02 98 -
04:14 48.2 47.7   Calm   30.02 98 -
04:19 48.2 47.7   Calm   30.02 98 -
04:24 48.2 47.7   Calm   30.02 98 -
04:29 48.2 47.7   Calm   30.02 98 -
04:34 48.0 47.5   Calm   30.01 98 -
04:39 47.8 47.3   Calm   30.01 98 -
04:44 47.8 47.3 0.6 ENE 1.2 30.01 98 -
04:49 47.8 47.3   Calm   30.02 98 -
04:54 47.8 47.3   Calm   30.01 98 -
04:59 47.8 47.3   Calm   30.01 98 -
05:04 47.7 47.1   Calm   30.01 98 -
05:09 47.7 47.1   Calm   30.01 98 -
05:14 47.7 46.9   Calm   30.01 97 -
05:19 47.5 46.8   Calm   30.01 97 -
05:24 47.5 46.8   Calm   30.01 97 -
05:29 47.3 46.6   Calm   30.02 97 -
05:34 47.3 46.6 0.6 NE 2.5 30.02 97 -
05:39 47.3 46.6   Calm   30.02 97 -
05:44 47.5 46.8   Calm 1.2 30.02 97 -
05:49 47.5 46.8 0.6 East 1.2 30.02 97 -
05:54 47.7 46.9   Calm   30.02 97 -
05:59 47.7 46.9   Calm   30.02 97 -
06:04 47.8 47.1   Calm   30.02 97 -
06:09 48.0 47.3   Calm   30.02 97 -
06:14 48.0 47.3   Calm   30.03 97 -
06:19 48.2 47.5   Calm   30.02 97 -
06:24 48.2 47.5   Calm   30.03 97 -
06:29 48.4 47.7   Calm   30.03 97 -
06:34 48.4 47.7   Calm   30.02 97 -
06:39 48.4 47.7   Calm   30.03 97 -
06:44 48.4 47.5   Calm   30.03 96 -
06:49 48.6 47.7   Calm   30.02 96 -
06:54 48.9 48.0   Calm   30.03 96 -
06:59 48.9 48.0   Calm   30.03 96 -
07:04 48.7 47.8 1.2 SE 2.5 30.02 96 -
07:09 48.9 47.5   Calm 1.2 30.02 95 -
07:14 49.1 47.7   Calm   30.03 95 -
07:19 49.3 47.8   Calm   30.03 95 -
07:24 49.5 47.8 1.2 NE 2.5 30.03 95 -
07:29 49.8 48.0 2.5 NNE 2.5 30.03 94 -
07:34 50.2 48.2 1.2 NNE 2.5 30.03 94 -
07:39 50.2 48.2 5.6 North 9.3 30.03 93 -
07:44 50.5 47.8 3.7 NNE 6.8 30.03 91 -
07:49 50.7 47.8 3.1 NNE 5.6 30.03 90 -
07:54 50.7 47.8 1.9 NNE 2.5 30.04 90 -
07:59 50.7 48.2 2.5 NE 3.7 30.03 91 -
08:04 50.5 48.0 1.9 NNE 2.5 30.04 91 -
08:09 50.5 48.0 3.1 NNE 4.3 30.03 91 -
08:14 50.7 48.2 2.5 NNE 3.7 30.04 91 -
08:19 50.7 48.2 1.9 NE 2.5 30.04 91 -
08:24 50.7 48.2 3.1 East 3.7 30.04 91 -
08:29 51.1 48.2 1.9 ENE 3.7 30.04 90 -
08:34 51.1 48.2 1.9 NE 3.7 30.03 90 -
08:39 51.1 48.2 2.5 East 2.5 30.04 90 -
08:44 51.8 48.6 1.2 East 2.5 30.04 89 -
08:49 52.0 48.6 3.7 NNE 5.6 30.03 89 -
08:54 52.3 48.4 2.5 NE 2.5 30.04 87 -
08:59 52.5 48.6 3.1 NNE 4.3 30.04 86 -
09:04 53.1 48.9 3.1 East 4.3 30.04 86 -
09:09 53.2 48.6 3.7 ENE 4.3 30.04 84 -
09:14 53.8 48.7 3.7 North 4.3 30.04 83 -
09:19 54.0 48.9 5.0 North 6.8 30.04 83 -
09:24 54.0 49.3 3.7 NE 4.3 30.04 84 -
09:29 53.8 49.3 3.7 North 4.3 30.04 85 -
09:34 53.1 48.9 3.7 NNE 5.6 30.04 86 -
09:39 53.2 48.9 3.1 North 4.3 30.04 85 -
09:44 53.2 48.9 3.7 ENE 4.3 30.04 85 -
09:49 53.1 48.7 2.5 NNE 3.7 30.04 85 -
09:54 53.4 49.3 3.1 NE 4.3 30.03 86 -
09:59 53.8 49.5 3.7 North 4.3 30.03 85 -
10:04 54.1 49.3 2.5 NNE 3.7 30.03 84 -
10:09 54.7 49.6 4.3 North 5.6 30.03 83 -
10:14 54.7 48.9 3.7 North 5.6 30.03 81 -
10:19 55.4 49.1 3.7 North 4.3 30.03 79 -
10:24 55.4 48.4 3.7 NNW 4.3 30.03 77 -
10:29 54.9 48.2 3.7 North 4.3 30.03 78 -
10:34 54.5 47.8 3.1 North 4.3 30.03 78 -
10:39 54.7 48.0 3.7 NNW 5.6 30.03 78 -
10:44 54.7 48.6 3.7 NNW 4.3 30.03 80 -
10:49 54.1 48.6 5.6 North 8.1 30.04 84 -
10:54 53.2 49.1 5.0 North 8.1 30.04 87 7.09
10:59 52.2 48.7 3.7 North 5.6 30.04 89 7.09
11:04 52.0 48.7 3.1 NNW 3.7 30.04 90 7.09
11:09 51.4 48.9 2.5 North 3.7 30.04 91 4.69
11:14 51.4 48.9 3.1 North 3.7 30.04 91 4.69
11:19 52.2 49.3 3.7 North 4.3 30.04 91 -
11:24 53.6 50.4 3.7 NNW 5.6 30.04 90 -
11:29 53.6 50.0 5.0 NNW 9.3 30.04 88 -
11:34 53.4 49.1 5.6 NNW 6.8 30.04 85 -
11:39 53.2 49.1 4.3 North 6.8 30.04 86 -
11:44 54.0 49.8 3.7 North 6.8 30.04 86 -
11:49 54.1 49.8 3.7 NNW 4.3 30.04 86 -
11:54 53.6 49.6 3.7 NNW 4.3 30.04 87 -
11:59 53.4 49.8 3.7 NNW 4.3 30.05 88 -
12:04 53.8 50.0 1.9 North 3.7 30.05 87 -
12:09 54.7 50.2 3.7 North 4.3 30.04 87 -
12:14 55.6 50.4 5.0 NNW 6.8 30.05 84 -
12:19 55.4 48.7 5.6 North 9.3 30.05 78 -
12:24 56.3 49.3 6.8 North 11.2 30.04 79 -
12:29 55.9 48.4 5.0 NNW 6.8 30.04 76 -
12:34 56.1 48.7 5.0 North 5.6 30.04 77 -
12:39 56.1 48.6 3.7 NNW 5.6 30.04 77 -
12:44 56.1 48.6 3.7 North 5.6 30.04 76 -
12:49 55.9 48.9 3.7 NNW 5.6 30.04 78 -
12:54 55.9 49.1 5.0 NNW 8.1 30.05 78 -
12:59 55.8 49.3 5.6 North 8.1 30.04 79 -
13:04 55.2 47.8 5.0 NNW 8.1 30.05 76 -
13:09 55.2 47.8 3.7 North 5.6 30.05 76 -
13:14 55.4 48.0 3.7 NNW 5.6 30.04 76 -
13:19 55.9 48.0 5.0 North 6.8 30.05 76 -
13:24 57.0 48.4 6.8 NNW 10.6 30.04 74 -
13:29 56.8 47.8 6.2 North 9.3 30.05 72 -
13:34 57.9 47.5 3.7 NNW 4.3 30.05 70 -
13:39 57.7 48.6 6.8 North 9.3 30.05 75 -
13:44 56.1 48.6 5.0 North 6.8 30.05 78 -
13:49 54.7 48.4 5.6 North 8.1 30.05 80 -
13:54 56.3 49.1 5.0 North 5.6 30.05 79 -
13:59 56.5 49.3 6.2 NNW 8.1 30.05 78 -
14:04 55.6 49.6 6.2 North 8.1 30.05 81 -
14:09 55.6 48.4 5.6 North 6.8 30.05 77 -
14:14 56.5 48.9 3.7 NNW 5.6 30.05 76 -
14:19 57.0 48.9 5.0 NNW 6.8 30.05 75 -
14:24 56.8 49.1 4.3 North 5.6 30.05 75 -
14:29 56.5 48.4 5.0 NNW 9.3 30.04 74 -
14:34 56.1 48.4 5.0 North 6.8 30.05 76 -
14:39 55.8 48.2 4.3 NNW 5.6 30.05 76 -
14:44 56.3 48.6 5.0 NNE 8.1 30.05 75 -
14:49 56.5 48.9 6.2 North 8.1 30.05 76 -
14:54 55.9 47.7 3.7 NNW 5.6 30.04 74 -
14:59 55.8 47.7 5.6 North 8.1 30.05 74 -
15:04 56.5 47.8 5.6 NNW 6.8 30.04 73 -
15:09 56.5 47.7 4.3 NNW 6.8 30.04 74 -
15:14 56.1 48.9 3.7 NNW 5.6 30.05 77 -
15:19 56.3 49.1 4.3 NNW 6.8 30.05 77 -
15:24 55.9 48.6 3.7 NNW 6.8 30.05 77 -
15:29 56.8 49.1 3.7 North 5.6 30.05 77 -
15:34 56.8 49.1 3.7 NNW 5.6 30.05 75 -
15:39 56.7 48.2 5.0 NNW 8.1 30.04 73 -
15:44 56.8 48.7 5.0 NNW 6.8 30.05 74 -
15:49 57.2 48.7 5.0 NNW 5.6 30.05 73 -
15:54 57.7 48.7 3.7 North 5.6 30.05 73 -
15:59 57.7 47.7 3.7 NNW 4.3 30.05 69 -
16:04 57.6 47.7 4.3 North 5.6 30.04 70 -
16:09 57.7 47.5 4.3 North 6.8 30.05 69 -
16:14 57.4 47.8 3.7 NNW 5.6 30.05 72 -
16:19 56.5 48.2 5.6 North 8.1 30.05 75 -
16:24 56.3 48.2 5.0 NNW 8.1 30.05 75 -
16:29 56.5 48.0 6.2 North 9.3 30.05 73 -
16:34 56.7 47.7 4.3 NNW 5.6 30.05 72 -
16:39 56.8 47.5 5.0 North 6.8 30.05 71 -

Download your copy of this data-set  from WeatherUnderground

Our weather-data as stored at Weather Underground

Flag Counter